sensor_id;sensor_type;location;lat;lon;timestamp;pressure;altitude;pressure_sealevel;temperature
30765;BMP180;494;48.744;10.106;2022-07-18T00:01:20;96605.00;;;15.00
30765;BMP180;494;48.744;10.106;2022-07-18T00:03:48;96564.00;;;17.60
30765;BMP180;494;48.744;10.106;2022-07-18T00:06:17;96538.00;;;17.50
30765;BMP180;494;48.744;10.106;2022-07-18T00:08:45;96541.00;;;17.30
30765;BMP180;494;48.744;10.106;2022-07-18T00:11:15;96576.00;;;17.40
30765;BMP180;494;48.744;10.106;2022-07-18T00:13:44;96381.00;;;17.50
30765;BMP180;494;48.744;10.106;2022-07-18T00:16:13;96591.00;;;17.00
30765;BMP180;494;48.744;10.106;2022-07-18T00:18:41;96551.00;;;17.00
30765;BMP180;494;48.744;10.106;2022-07-18T00:21:10;96591.00;;;17.40
30765;BMP180;494;48.744;10.106;2022-07-18T00:23:39;96545.00;;;17.10
30765;BMP180;494;48.744;10.106;2022-07-18T00:26:08;96547.00;;;17.40
30765;BMP180;494;48.744;10.106;2022-07-18T00:28:38;96548.00;;;17.40
30765;BMP180;494;48.744;10.106;2022-07-18T00:31:06;96180.00;;;16.50
30765;BMP180;494;48.744;10.106;2022-07-18T00:33:35;96357.00;;;17.40
30765;BMP180;494;48.744;10.106;2022-07-18T00:36:04;96546.00;;;17.30
30765;BMP180;494;48.744;10.106;2022-07-18T00:38:33;96378.00;;;17.30
30765;BMP180;494;48.744;10.106;2022-07-18T00:41:01;96542.00;;;17.10
30765;BMP180;494;48.744;10.106;2022-07-18T00:43:30;96475.00;;;17.00
30765;BMP180;494;48.744;10.106;2022-07-18T00:46:00;96534.00;;;16.80
30765;BMP180;494;48.744;10.106;2022-07-18T00:48:29;96182.00;;;16.90
30765;BMP180;494;48.744;10.106;2022-07-18T00:50:57;96536.00;;;16.90
30765;BMP180;494;48.744;10.106;2022-07-18T00:53:26;96540.00;;;16.80
30765;BMP180;494;48.744;10.106;2022-07-18T00:55:54;96539.00;;;16.80
30765;BMP180;494;48.744;10.106;2022-07-18T00:58:23;96547.00;;;16.70
30765;BMP180;494;48.744;10.106;2022-07-18T01:00:52;96540.00;;;16.80
30765;BMP180;494;48.744;10.106;2022-07-18T01:03:39;96471.00;;;16.80
30765;BMP180;494;48.744;10.106;2022-07-18T01:06:07;96294.00;;;16.80
30765;BMP180;494;48.744;10.106;2022-07-18T01:08:36;96551.00;;;16.70
30765;BMP180;494;48.744;10.106;2022-07-18T01:11:05;96567.00;;;16.80
30765;BMP180;494;48.744;10.106;2022-07-18T01:13:34;96549.00;;;16.80
30765;BMP180;494;48.744;10.106;2022-07-18T01:16:04;96358.00;;;16.70
30765;BMP180;494;48.744;10.106;2022-07-18T01:18:33;96546.00;;;16.80
30765;BMP180;494;48.744;10.106;2022-07-18T01:21:03;96551.00;;;16.70
30765;BMP180;494;48.744;10.106;2022-07-18T01:23:32;96544.00;;;16.60
30765;BMP180;494;48.744;10.106;2022-07-18T01:26:00;96544.00;;;16.10
30765;BMP180;494;48.744;10.106;2022-07-18T01:28:29;96539.00;;;16.70
30765;BMP180;494;48.744;10.106;2022-07-18T01:30:57;96542.00;;;16.70
30765;BMP180;494;48.744;10.106;2022-07-18T01:33:26;96278.00;;;15.90
30765;BMP180;494;48.744;10.106;2022-07-18T01:35:54;96540.00;;;16.60
30765;BMP180;494;48.744;10.106;2022-07-18T01:38:24;96532.00;;;16.60
30765;BMP180;494;48.744;10.106;2022-07-18T01:40:53;96536.00;;;16.60
30765;BMP180;494;48.744;10.106;2022-07-18T01:43:23;96538.00;;;16.60
30765;BMP180;494;48.744;10.106;2022-07-18T01:45:52;96543.00;;;16.50
30765;BMP180;494;48.744;10.106;2022-07-18T01:48:21;96539.00;;;16.60
30765;BMP180;494;48.744;10.106;2022-07-18T01:50:52;96432.00;;;16.60
30765;BMP180;494;48.744;10.106;2022-07-18T01:53:20;96555.00;;;16.60
30765;BMP180;494;48.744;10.106;2022-07-18T01:55:52;96545.00;;;16.50
30765;BMP180;494;48.744;10.106;2022-07-18T01:58:21;96539.00;;;16.50
30765;BMP180;494;48.744;10.106;2022-07-18T02:00:49;96356.00;;;15.80
30765;BMP180;494;48.744;10.106;2022-07-18T02:03:18;96545.00;;;16.50
30765;BMP180;494;48.744;10.106;2022-07-18T02:05:47;96533.00;;;16.40
30765;BMP180;494;48.744;10.106;2022-07-18T02:08:15;96453.00;;;15.50
30765;BMP180;494;48.744;10.106;2022-07-18T02:10:44;96154.00;;;16.40
30765;BMP180;494;48.744;10.106;2022-07-18T02:13:13;96329.00;;;16.30
30765;BMP180;494;48.744;10.106;2022-07-18T02:15:44;96537.00;;;16.20
30765;BMP180;494;48.744;10.106;2022-07-18T02:18:12;96535.00;;;16.00
30765;BMP180;494;48.744;10.106;2022-07-18T02:20:41;95587.00;;;16.30
30765;BMP180;494;48.744;10.106;2022-07-18T02:23:10;96361.00;;;15.70
30765;BMP180;494;48.744;10.106;2022-07-18T02:25:38;96524.00;;;16.30
30765;BMP180;494;48.744;10.106;2022-07-18T02:28:07;96534.00;;;15.90
30765;BMP180;494;48.744;10.106;2022-07-18T02:30:36;96464.00;;;15.60
30765;BMP180;494;48.744;10.106;2022-07-18T02:33:05;95930.00;;;16.10
30765;BMP180;494;48.744;10.106;2022-07-18T02:35:34;96530.00;;;16.20
30765;BMP180;494;48.744;10.106;2022-07-18T02:38:03;96524.00;;;16.20
30765;BMP180;494;48.744;10.106;2022-07-18T02:40:31;96532.00;;;16.30
30765;BMP180;494;48.744;10.106;2022-07-18T02:43:00;96532.00;;;16.20
30765;BMP180;494;48.744;10.106;2022-07-18T02:45:29;96532.00;;;15.20
30765;BMP180;494;48.744;10.106;2022-07-18T02:47:59;96285.00;;;15.70
30765;BMP180;494;48.744;10.106;2022-07-18T02:50:28;96536.00;;;16.20
30765;BMP180;494;48.744;10.106;2022-07-18T02:52:56;96538.00;;;16.10
30765;BMP180;494;48.744;10.106;2022-07-18T02:55:25;96468.00;;;16.10
30765;BMP180;494;48.744;10.106;2022-07-18T02:57:53;96532.00;;;16.20
30765;BMP180;494;48.744;10.106;2022-07-18T03:00:22;96543.00;;;16.10
30765;BMP180;494;48.744;10.106;2022-07-18T03:02:50;96541.00;;;16.10
30765;BMP180;494;48.744;10.106;2022-07-18T03:05:20;96478.00;;;15.80
30765;BMP180;494;48.744;10.106;2022-07-18T03:07:49;96549.00;;;16.10
30765;BMP180;494;48.744;10.106;2022-07-18T03:10:17;96553.00;;;16.00
30765;BMP180;494;48.744;10.106;2022-07-18T03:12:46;96545.00;;;16.10
30765;BMP180;494;48.744;10.106;2022-07-18T03:15:14;96573.00;;;16.00
30765;BMP180;494;48.744;10.106;2022-07-18T03:17:43;96321.00;;;16.00
30765;BMP180;494;48.744;10.106;2022-07-18T03:20:12;96545.00;;;16.00
30765;BMP180;494;48.744;10.106;2022-07-18T03:22:42;96084.00;;;16.00
30765;BMP180;494;48.744;10.106;2022-07-18T03:25:10;96541.00;;;15.90
30765;BMP180;494;48.744;10.106;2022-07-18T03:27:42;96220.00;;;15.90
30765;BMP180;494;48.744;10.106;2022-07-18T03:30:11;96477.00;;;15.90
30765;BMP180;494;48.744;10.106;2022-07-18T03:32:40;96546.00;;;15.90
30765;BMP180;494;48.744;10.106;2022-07-18T03:35:09;96603.00;;;15.90
30765;BMP180;494;48.744;10.106;2022-07-18T03:37:37;96560.00;;;15.80
30765;BMP180;494;48.744;10.106;2022-07-18T03:40:09;96555.00;;;15.80
30765;BMP180;494;48.744;10.106;2022-07-18T03:42:38;96575.00;;;15.80
30765;BMP180;494;48.744;10.106;2022-07-18T03:45:08;96555.00;;;15.80
30765;BMP180;494;48.744;10.106;2022-07-18T03:47:37;96570.00;;;16.00
30765;BMP180;494;48.744;10.106;2022-07-18T03:50:07;96551.00;;;15.80
30765;BMP180;494;48.744;10.106;2022-07-18T03:52:36;96557.00;;;15.90
30765;BMP180;494;48.744;10.106;2022-07-18T03:55:07;96552.00;;;15.80
30765;BMP180;494;48.744;10.106;2022-07-18T03:57:37;96548.00;;;15.80
30765;BMP180;494;48.744;10.106;2022-07-18T04:00:07;96557.00;;;15.80
30765;BMP180;494;48.744;10.106;2022-07-18T04:02:38;96549.00;;;15.50
30765;BMP180;494;48.744;10.106;2022-07-18T04:05:08;96550.00;;;15.90
30765;BMP180;494;48.744;10.106;2022-07-18T04:07:37;96552.00;;;15.90
30765;BMP180;494;48.744;10.106;2022-07-18T04:10:09;96557.00;;;15.40
30765;BMP180;494;48.744;10.106;2022-07-18T04:12:45;96301.00;;;15.90
30765;BMP180;494;48.744;10.106;2022-07-18T04:15:14;96541.00;;;15.90
30765;BMP180;494;48.744;10.106;2022-07-18T04:17:43;96545.00;;;15.90
30765;BMP180;494;48.744;10.106;2022-07-18T04:20:13;96548.00;;;15.80
30765;BMP180;494;48.744;10.106;2022-07-18T04:22:51;96473.00;;;16.00
30765;BMP180;494;48.744;10.106;2022-07-18T04:25:23;96388.00;;;16.00
30765;BMP180;494;48.744;10.106;2022-07-18T04:27:53;96571.00;;;16.00
30765;BMP180;494;48.744;10.106;2022-07-18T04:30:25;96582.00;;;16.00
30765;BMP180;494;48.744;10.106;2022-07-18T04:32:55;96551.00;;;16.10
30765;BMP180;494;48.744;10.106;2022-07-18T04:35:24;96214.00;;;16.30
30765;BMP180;494;48.744;10.106;2022-07-18T04:37:54;96508.00;;;16.20
30765;BMP180;494;48.744;10.106;2022-07-18T04:40:24;95877.00;;;16.20
30765;BMP180;494;48.744;10.106;2022-07-18T04:42:53;96537.00;;;16.30
30765;BMP180;494;48.744;10.106;2022-07-18T04:45:21;96371.00;;;16.40
30765;BMP180;494;48.744;10.106;2022-07-18T04:47:51;96535.00;;;16.20
30765;BMP180;494;48.744;10.106;2022-07-18T04:50:21;96381.00;;;16.30
30765;BMP180;494;48.744;10.106;2022-07-18T04:52:52;96572.00;;;16.20
30765;BMP180;494;48.744;10.106;2022-07-18T04:55:23;96525.00;;;15.70
30765;BMP180;494;48.744;10.106;2022-07-18T04:57:52;96526.00;;;16.70
30765;BMP180;494;48.744;10.106;2022-07-18T05:00:23;96530.00;;;16.70
30765;BMP180;494;48.744;10.106;2022-07-18T05:02:54;96271.00;;;16.10
30765;BMP180;494;48.744;10.106;2022-07-18T05:05:25;96577.00;;;16.20
30765;BMP180;494;48.744;10.106;2022-07-18T05:08:03;96520.00;;;16.90
30765;BMP180;494;48.744;10.106;2022-07-18T05:10:34;96528.00;;;17.00
30765;BMP180;494;48.744;10.106;2022-07-18T05:13:03;96535.00;;;17.10
30765;BMP180;494;48.744;10.106;2022-07-18T05:15:31;96528.00;;;17.10
30765;BMP180;494;48.744;10.106;2022-07-18T05:18:00;96529.00;;;17.30
30765;BMP180;494;48.744;10.106;2022-07-18T05:20:28;96535.00;;;17.30
30765;BMP180;494;48.744;10.106;2022-07-18T05:22:57;96170.00;;;17.60
30765;BMP180;494;48.744;10.106;2022-07-18T05:25:26;96368.00;;;17.60
30765;BMP180;494;48.744;10.106;2022-07-18T05:27:55;96486.00;;;17.60
30765;BMP180;494;48.744;10.106;2022-07-18T05:30:24;96535.00;;;16.90
30765;BMP180;494;48.744;10.106;2022-07-18T05:32:53;96537.00;;;17.70
30765;BMP180;494;48.744;10.106;2022-07-18T05:35:22;96083.00;;;16.80
30765;BMP180;494;48.744;10.106;2022-07-18T05:37:51;96454.00;;;17.90
30765;BMP180;494;48.744;10.106;2022-07-18T05:40:19;96279.00;;;17.80
30765;BMP180;494;48.744;10.106;2022-07-18T05:42:48;96298.00;;;17.70
30765;BMP180;494;48.744;10.106;2022-07-18T05:45:23;96617.00;;;18.30
30765;BMP180;494;48.744;10.106;2022-07-18T05:47:53;96623.00;;;18.40
30765;BMP180;494;48.744;10.106;2022-07-18T05:50:23;96101.00;;;16.90
30765;BMP180;494;48.744;10.106;2022-07-18T05:52:52;96522.00;;;18.50
30765;BMP180;494;48.744;10.106;2022-07-18T05:55:21;96463.00;;;18.70
30765;BMP180;494;48.744;10.106;2022-07-18T05:57:49;96536.00;;;19.10
30765;BMP180;494;48.744;10.106;2022-07-18T06:00:21;96535.00;;;19.40
30765;BMP180;494;48.744;10.106;2022-07-18T06:02:50;96465.00;;;19.20
30765;BMP180;494;48.744;10.106;2022-07-18T06:05:19;96529.00;;;19.70
30765;BMP180;494;48.744;10.106;2022-07-18T06:07:52;96524.00;;;19.80
30765;BMP180;494;48.744;10.106;2022-07-18T06:10:22;96451.00;;;20.10
30765;BMP180;494;48.744;10.106;2022-07-18T06:12:52;96506.00;;;20.30
30765;BMP180;494;48.744;10.106;2022-07-18T06:15:23;96558.00;;;20.00
30765;BMP180;494;48.744;10.106;2022-07-18T06:17:52;96520.00;;;20.70
30765;BMP180;494;48.744;10.106;2022-07-18T06:20:20;96518.00;;;21.10
30765;BMP180;494;48.744;10.106;2022-07-18T06:22:49;96558.00;;;21.20
30765;BMP180;494;48.744;10.106;2022-07-18T06:25:18;96521.00;;;21.30
30765;BMP180;494;48.744;10.106;2022-07-18T06:27:46;96520.00;;;21.50
30765;BMP180;494;48.744;10.106;2022-07-18T06:30:15;96244.00;;;21.60
30765;BMP180;494;48.744;10.106;2022-07-18T06:32:45;96418.00;;;21.60
30765;BMP180;494;48.744;10.106;2022-07-18T06:35:13;96512.00;;;21.80
30765;BMP180;494;48.744;10.106;2022-07-18T06:37:42;96389.00;;;22.30
30765;BMP180;494;48.744;10.106;2022-07-18T06:40:11;96514.00;;;22.70
30765;BMP180;494;48.744;10.106;2022-07-18T06:42:40;96270.00;;;22.80
30765;BMP180;494;48.744;10.106;2022-07-18T06:45:09;96114.00;;;23.20
30765;BMP180;494;48.744;10.106;2022-07-18T06:47:42;96477.00;;;23.00
30765;BMP180;494;48.744;10.106;2022-07-18T06:50:13;96502.00;;;23.20
30765;BMP180;494;48.744;10.106;2022-07-18T06:52:44;96534.00;;;23.70
30765;BMP180;494;48.744;10.106;2022-07-18T06:55:14;96506.00;;;24.10
30765;BMP180;494;48.744;10.106;2022-07-18T06:57:43;96502.00;;;24.40
30765;BMP180;494;48.744;10.106;2022-07-18T07:00:14;96539.00;;;24.40
30765;BMP180;494;48.744;10.106;2022-07-18T07:02:48;96180.00;;;24.40
30765;BMP180;494;48.744;10.106;2022-07-18T07:05:21;96563.00;;;24.80
30765;BMP180;494;48.744;10.106;2022-07-18T07:07:49;96513.00;;;24.90
30765;BMP180;494;48.744;10.106;2022-07-18T07:10:18;96510.00;;;25.20
30765;BMP180;494;48.744;10.106;2022-07-18T07:12:50;96415.00;;;25.50
30765;BMP180;494;48.744;10.106;2022-07-18T07:15:22;96517.00;;;25.70
30765;BMP180;494;48.744;10.106;2022-07-18T07:17:51;96287.00;;;26.00
30765;BMP180;494;48.744;10.106;2022-07-18T07:20:21;96522.00;;;26.40
30765;BMP180;494;48.744;10.106;2022-07-18T07:22:52;96505.00;;;26.70
30765;BMP180;494;48.744;10.106;2022-07-18T07:25:24;96509.00;;;26.90
30765;BMP180;494;48.744;10.106;2022-07-18T07:27:53;96508.00;;;26.60
30765;BMP180;494;48.744;10.106;2022-07-18T07:30:22;96511.00;;;27.40
30765;BMP180;494;48.744;10.106;2022-07-18T07:32:51;96506.00;;;27.60
30765;BMP180;494;48.744;10.106;2022-07-18T07:35:21;96523.00;;;27.70
30765;BMP180;494;48.744;10.106;2022-07-18T07:37:52;96521.00;;;27.90
30765;BMP180;494;48.744;10.106;2022-07-18T07:40:22;96507.00;;;28.30
30765;BMP180;494;48.744;10.106;2022-07-18T07:42:52;96506.00;;;28.10
30765;BMP180;494;48.744;10.106;2022-07-18T07:45:32;96497.00;;;29.00
30765;BMP180;494;48.744;10.106;2022-07-18T07:48:03;96436.00;;;29.20
30765;BMP180;494;48.744;10.106;2022-07-18T07:50:34;96504.00;;;28.10
30765;BMP180;494;48.744;10.106;2022-07-18T07:53:03;96450.00;;;29.00
30765;BMP180;494;48.744;10.106;2022-07-18T07:55:32;96385.00;;;28.80
30765;BMP180;494;48.744;10.106;2022-07-18T07:58:01;96499.00;;;29.50
30765;BMP180;494;48.744;10.106;2022-07-18T08:00:32;96498.00;;;29.50
30765;BMP180;494;48.744;10.106;2022-07-18T08:03:03;96495.00;;;29.70
30765;BMP180;494;48.744;10.106;2022-07-18T08:05:37;96515.00;;;29.90
30765;BMP180;494;48.744;10.106;2022-07-18T08:08:06;96493.00;;;29.80
30765;BMP180;494;48.744;10.106;2022-07-18T08:10:34;96457.00;;;30.40
30765;BMP180;494;48.744;10.106;2022-07-18T08:13:11;96385.00;;;30.50
30765;BMP180;494;48.744;10.106;2022-07-18T08:15:41;96357.00;;;30.10
30765;BMP180;494;48.744;10.106;2022-07-18T08:18:09;96381.00;;;31.10
30765;BMP180;494;48.744;10.106;2022-07-18T08:20:39;96491.00;;;31.10
30765;BMP180;494;48.744;10.106;2022-07-18T08:23:10;96553.00;;;31.30
30765;BMP180;494;48.744;10.106;2022-07-18T08:25:41;96512.00;;;31.30
30765;BMP180;494;48.744;10.106;2022-07-18T08:28:09;96497.00;;;31.00
30765;BMP180;494;48.744;10.106;2022-07-18T08:30:39;96138.00;;;31.20
30765;BMP180;494;48.744;10.106;2022-07-18T08:33:07;96283.00;;;30.00
30765;BMP180;494;48.744;10.106;2022-07-18T08:35:36;96501.00;;;32.00
30765;BMP180;494;48.744;10.106;2022-07-18T08:38:06;96508.00;;;32.00
30765;BMP180;494;48.744;10.106;2022-07-18T08:40:37;96411.00;;;31.50
30765;BMP180;494;48.744;10.106;2022-07-18T08:43:05;96286.00;;;31.50
30765;BMP180;494;48.744;10.106;2022-07-18T08:45:56;96504.00;;;32.20
30765;BMP180;494;48.744;10.106;2022-07-18T08:48:25;96164.00;;;32.00
30765;BMP180;494;48.744;10.106;2022-07-18T08:50:56;96393.00;;;32.40
30765;BMP180;494;48.744;10.106;2022-07-18T08:53:28;96512.00;;;32.50
30765;BMP180;494;48.744;10.106;2022-07-18T08:55:58;96443.00;;;31.90
30765;BMP180;494;48.744;10.106;2022-07-18T08:58:27;96532.00;;;32.10
30765;BMP180;494;48.744;10.106;2022-07-18T09:01:13;96508.00;;;32.80
30765;BMP180;494;48.744;10.106;2022-07-18T09:03:42;96507.00;;;32.90
30765;BMP180;494;48.744;10.106;2022-07-18T09:06:13;96565.00;;;32.10
30765;BMP180;494;48.744;10.106;2022-07-18T09:08:59;96580.00;;;33.00
30765;BMP180;494;48.744;10.106;2022-07-18T09:11:28;96511.00;;;32.90
30765;BMP180;494;48.744;10.106;2022-07-18T09:14:35;96450.00;;;33.10
30765;BMP180;494;48.744;10.106;2022-07-18T09:17:09;96504.00;;;33.30
30765;BMP180;494;48.744;10.106;2022-07-18T09:19:41;96524.00;;;33.40
30765;BMP180;494;48.744;10.106;2022-07-18T09:22:13;96383.00;;;32.80
30765;BMP180;494;48.744;10.106;2022-07-18T09:25:03;96455.00;;;33.10
30765;BMP180;494;48.744;10.106;2022-07-18T09:27:40;96246.00;;;33.30
30765;BMP180;494;48.744;10.106;2022-07-18T09:30:19;96521.00;;;33.70
30765;BMP180;494;48.744;10.106;2022-07-18T09:32:51;96434.00;;;33.70
30765;BMP180;494;48.744;10.106;2022-07-18T09:35:24;96487.00;;;33.80
30765;BMP180;494;48.744;10.106;2022-07-18T09:38:01;96453.00;;;33.60
30765;BMP180;494;48.744;10.106;2022-07-18T09:40:34;96074.00;;;33.90
30765;BMP180;494;48.744;10.106;2022-07-18T09:43:05;96505.00;;;33.90
30765;BMP180;494;48.744;10.106;2022-07-18T09:45:37;96505.00;;;33.80
30765;BMP180;494;48.744;10.106;2022-07-18T09:48:08;96404.00;;;33.60
30765;BMP180;494;48.744;10.106;2022-07-18T09:50:40;96507.00;;;32.40
30765;BMP180;494;48.744;10.106;2022-07-18T09:53:15;96394.00;;;34.10
30765;BMP180;494;48.744;10.106;2022-07-18T09:56:03;96506.00;;;34.30
30765;BMP180;494;48.744;10.106;2022-07-18T09:58:36;96514.00;;;34.20
30765;BMP180;494;48.744;10.106;2022-07-18T10:01:07;96389.00;;;34.50
30765;BMP180;494;48.744;10.106;2022-07-18T10:03:37;96513.00;;;34.20
30765;BMP180;494;48.744;10.106;2022-07-18T10:06:07;96515.00;;;34.10
30765;BMP180;494;48.744;10.106;2022-07-18T10:08:37;96508.00;;;34.20
30765;BMP180;494;48.744;10.106;2022-07-18T10:11:08;96200.00;;;34.30
30765;BMP180;494;48.744;10.106;2022-07-18T10:13:38;96476.00;;;34.70
30765;BMP180;494;48.744;10.106;2022-07-18T10:16:07;96348.00;;;34.40
30765;BMP180;494;48.744;10.106;2022-07-18T10:18:36;96164.00;;;34.90
30765;BMP180;494;48.744;10.106;2022-07-18T10:21:09;96503.00;;;35.20
30765;BMP180;494;48.744;10.106;2022-07-18T10:23:41;96509.00;;;34.70
30765;BMP180;494;48.744;10.106;2022-07-18T10:26:14;96504.00;;;34.40
30765;BMP180;494;48.744;10.106;2022-07-18T10:29:23;96500.00;;;34.70
30765;BMP180;494;48.744;10.106;2022-07-18T10:32:03;96457.00;;;35.00
30765;BMP180;494;48.744;10.106;2022-07-18T10:34:37;96502.00;;;34.90
30765;BMP180;494;48.744;10.106;2022-07-18T10:37:11;96501.00;;;34.70
30765;BMP180;494;48.744;10.106;2022-07-18T10:39:42;96499.00;;;34.70
30765;BMP180;494;48.744;10.106;2022-07-18T10:42:20;96500.00;;;35.10
30765;BMP180;494;48.744;10.106;2022-07-18T10:44:51;96357.00;;;35.40
30765;BMP180;494;48.744;10.106;2022-07-18T10:47:20;96493.00;;;35.80
30765;BMP180;494;48.744;10.106;2022-07-18T10:50:08;96516.00;;;35.20
30765;BMP180;494;48.744;10.106;2022-07-18T10:52:56;96526.00;;;35.90
30765;BMP180;494;48.744;10.106;2022-07-18T10:55:30;96441.00;;;35.50
30765;BMP180;494;48.744;10.106;2022-07-18T10:58:22;96491.00;;;35.80
30765;BMP180;494;48.744;10.106;2022-07-18T11:01:07;96510.00;;;36.20
30765;BMP180;494;48.744;10.106;2022-07-18T11:03:39;96489.00;;;36.00
30765;BMP180;494;48.744;10.106;2022-07-18T11:06:07;96491.00;;;35.90
30765;BMP180;494;48.744;10.106;2022-07-18T11:08:37;96488.00;;;36.20
30765;BMP180;494;48.744;10.106;2022-07-18T11:11:09;96487.00;;;36.10
30765;BMP180;494;48.744;10.106;2022-07-18T11:13:41;96398.00;;;36.00
30765;BMP180;494;48.744;10.106;2022-07-18T11:16:22;96460.00;;;35.80
30765;BMP180;494;48.744;10.106;2022-07-18T11:19:21;96484.00;;;35.90
30765;BMP180;494;48.744;10.106;2022-07-18T11:21:58;96485.00;;;36.30
30765;BMP180;494;48.744;10.106;2022-07-18T11:24:27;96479.00;;;36.40
30765;BMP180;494;48.744;10.106;2022-07-18T11:26:56;96355.00;;;36.60
30765;BMP180;494;48.744;10.106;2022-07-18T11:29:26;96479.00;;;36.50
30765;BMP180;494;48.744;10.106;2022-07-18T11:31:57;96315.00;;;36.40
30765;BMP180;494;48.744;10.106;2022-07-18T11:34:27;96520.00;;;35.40
30765;BMP180;494;48.744;10.106;2022-07-18T11:37:12;96310.00;;;35.90
30765;BMP180;494;48.744;10.106;2022-07-18T11:39:41;96467.00;;;36.60
30765;BMP180;494;48.744;10.106;2022-07-18T11:42:10;96472.00;;;36.70
30765;BMP180;494;48.744;10.106;2022-07-18T11:44:41;96471.00;;;36.50
30765;BMP180;494;48.744;10.106;2022-07-18T11:47:11;96331.00;;;36.90
30765;BMP180;494;48.744;10.106;2022-07-18T11:49:55;96487.00;;;37.00
30765;BMP180;494;48.744;10.106;2022-07-18T11:52:24;96463.00;;;37.20
30765;BMP180;494;48.744;10.106;2022-07-18T11:54:59;96454.00;;;36.40
30765;BMP180;494;48.744;10.106;2022-07-18T11:57:30;96460.00;;;37.20
30765;BMP180;494;48.744;10.106;2022-07-18T12:00:13;96457.00;;;37.40
30765;BMP180;494;48.744;10.106;2022-07-18T12:02:42;96457.00;;;37.60
30765;BMP180;494;48.744;10.106;2022-07-18T12:05:11;96392.00;;;37.50
30765;BMP180;494;48.744;10.106;2022-07-18T12:07:40;96475.00;;;37.60
30765;BMP180;494;48.744;10.106;2022-07-18T12:10:16;96483.00;;;37.10
30765;BMP180;494;48.744;10.106;2022-07-18T12:12:46;96454.00;;;37.70
30765;BMP180;494;48.744;10.106;2022-07-18T12:15:17;96098.00;;;37.50
30765;BMP180;494;48.744;10.106;2022-07-18T12:17:47;96457.00;;;37.00
30765;BMP180;494;48.744;10.106;2022-07-18T12:20:20;96393.00;;;37.20
30765;BMP180;494;48.744;10.106;2022-07-18T12:23:09;96446.00;;;37.30
30765;BMP180;494;48.744;10.106;2022-07-18T12:25:58;96370.00;;;37.70
30765;BMP180;494;48.744;10.106;2022-07-18T12:28:28;96348.00;;;38.10
30765;BMP180;494;48.744;10.106;2022-07-18T12:30:58;96443.00;;;38.70
30765;BMP180;494;48.744;10.106;2022-07-18T12:33:27;96438.00;;;38.60
30765;BMP180;494;48.744;10.106;2022-07-18T12:35:59;96200.00;;;38.60
30765;BMP180;494;48.744;10.106;2022-07-18T12:38:28;96460.00;;;39.10
30765;BMP180;494;48.744;10.106;2022-07-18T12:40:59;96440.00;;;39.20
30765;BMP180;494;48.744;10.106;2022-07-18T12:43:32;96461.00;;;38.80
30765;BMP180;494;48.744;10.106;2022-07-18T12:46:07;96429.00;;;39.00
30765;BMP180;494;48.744;10.106;2022-07-18T12:48:37;96433.00;;;39.10
30765;BMP180;494;48.744;10.106;2022-07-18T12:51:08;96420.00;;;38.10
30765;BMP180;494;48.744;10.106;2022-07-18T12:53:40;96442.00;;;39.00
30765;BMP180;494;48.744;10.106;2022-07-18T12:56:10;96325.00;;;39.50
30765;BMP180;494;48.744;10.106;2022-07-18T12:58:38;96371.00;;;39.60
30765;BMP180;494;48.744;10.106;2022-07-18T13:01:08;96080.00;;;39.50
30765;BMP180;494;48.744;10.106;2022-07-18T13:03:37;95891.00;;;39.90
30765;BMP180;494;48.744;10.106;2022-07-18T13:06:07;96201.00;;;39.50
30765;BMP180;494;48.744;10.106;2022-07-18T13:08:36;96419.00;;;40.00
30765;BMP180;494;48.744;10.106;2022-07-18T13:11:04;96423.00;;;39.70
30765;BMP180;494;48.744;10.106;2022-07-18T13:13:33;96418.00;;;39.60
30765;BMP180;494;48.744;10.106;2022-07-18T13:16:02;96348.00;;;39.70
30765;BMP180;494;48.744;10.106;2022-07-18T13:18:32;96417.00;;;40.10
30765;BMP180;494;48.744;10.106;2022-07-18T13:21:00;96409.00;;;40.60
30765;BMP180;494;48.744;10.106;2022-07-18T13:23:29;96421.00;;;40.70
30765;BMP180;494;48.744;10.106;2022-07-18T13:25:58;96218.00;;;40.20
30765;BMP180;494;48.744;10.106;2022-07-18T13:28:26;96412.00;;;40.70
30765;BMP180;494;48.744;10.106;2022-07-18T13:30:55;96387.00;;;40.90
30765;BMP180;494;48.744;10.106;2022-07-18T13:33:24;96318.00;;;41.00
30765;BMP180;494;48.744;10.106;2022-07-18T13:35:54;96403.00;;;41.30
30765;BMP180;494;48.744;10.106;2022-07-18T13:38:22;96323.00;;;41.80
30765;BMP180;494;48.744;10.106;2022-07-18T13:40:51;96297.00;;;41.70
30765;BMP180;494;48.744;10.106;2022-07-18T13:43:20;96357.00;;;41.70
30765;BMP180;494;48.744;10.106;2022-07-18T13:45:48;96255.00;;;41.90
30765;BMP180;494;48.744;10.106;2022-07-18T13:48:17;96401.00;;;42.40
30765;BMP180;494;48.744;10.106;2022-07-18T13:50:45;96323.00;;;42.20
30765;BMP180;494;48.744;10.106;2022-07-18T13:53:15;96062.00;;;42.50
30765;BMP180;494;48.744;10.106;2022-07-18T13:55:45;96369.00;;;42.30
30765;BMP180;494;48.744;10.106;2022-07-18T13:58:14;96390.00;;;42.70
30765;BMP180;494;48.744;10.106;2022-07-18T14:00:49;96392.00;;;43.00
30765;BMP180;494;48.744;10.106;2022-07-18T14:03:17;96270.00;;;42.60
30765;BMP180;494;48.744;10.106;2022-07-18T14:05:46;96258.00;;;42.00
30765;BMP180;494;48.744;10.106;2022-07-18T14:08:16;96399.00;;;41.70
30765;BMP180;494;48.744;10.106;2022-07-18T14:10:45;96267.00;;;41.80
30765;BMP180;494;48.744;10.106;2022-07-18T14:13:13;96381.00;;;42.30
30765;BMP180;494;48.744;10.106;2022-07-18T14:15:42;96378.00;;;42.60
30765;BMP180;494;48.744;10.106;2022-07-18T14:18:11;96235.00;;;41.70
30765;BMP180;494;48.744;10.106;2022-07-18T14:20:39;96329.00;;;41.30
30765;BMP180;494;48.744;10.106;2022-07-18T14:23:08;96292.00;;;41.70
30765;BMP180;494;48.744;10.106;2022-07-18T14:25:39;96254.00;;;42.90
30765;BMP180;494;48.744;10.106;2022-07-18T14:28:07;96411.00;;;43.30
30765;BMP180;494;48.744;10.106;2022-07-18T14:30:36;96376.00;;;43.70
30765;BMP180;494;48.744;10.106;2022-07-18T14:33:04;96377.00;;;43.50
30765;BMP180;494;48.744;10.106;2022-07-18T14:35:37;96379.00;;;43.20
30765;BMP180;494;48.744;10.106;2022-07-18T14:38:06;96375.00;;;42.60
30765;BMP180;494;48.744;10.106;2022-07-18T14:40:35;96378.00;;;42.50
30765;BMP180;494;48.744;10.106;2022-07-18T14:43:05;96376.00;;;42.30